METAR / TAF

Die METAR- und TAF-Liste ist aus technischen Gründen (Verfügbarkeit, Update-Zyklen) nicht für ein Meteo-Briefing gedacht. Benutzen Sie stattdessen skybriefing der Skyguide  oder das TAMSI (MeteoSchweiz-eigene Meteo Selfbriefing-Plattform für Firmen aus der Aviatik; Anfragen über das

Kontaktformular

METAR Schweiz

METAR     LSZH 241920Z 35001KT CAVOK 17/09 Q1016 NOSIG=
METAR     LSZH 241950Z 00000KT CAVOK 15/09 Q1017 NOSIG=
METAR     LSGG 241920Z 22004KT CAVOK 17/09 Q1017 NOSIG=
METAR     LSGG 241950Z VRB01KT CAVOK 16/09 Q1017 NOSIG=
METAR     LFSB 242000Z 22002KT CAVOK 16/09 Q1016 NOSIG=
METAR     LSZB 241920Z 00000KT CAVOK 13/09 Q1016 NOSIG=
METAR     LSZB 241950Z VRB02KT CAVOK 12/09 Q1017 NOSIG=
METAR     LSZA 241920Z VRB01KT CAVOK 19/11 Q1016 NOSIG=
METAR     LSZA 241950Z VRB01KT CAVOK 18/11 Q1017 NOSIG=
METAR     LSZG 241920Z AUTO 25004KT CAVOK 15/10 Q1016=
METAR     LSZG 241950Z AUTO 20002KT CAVOK 14/09 Q1016=
METAR     LSZR 241920Z AUTO 19005KT CAVOK 16/10 Q1016=
METAR     LSZR 241950Z AUTO 18004KT CAVOK 17/09 Q1016=
METAR     LSGS 241920Z AUTO VRB01KT CAVOK 19/05 Q1017=
METAR     LSGS 241950Z AUTO VRB02KT CAVOK 18/05 Q1017=
METAR     LSGC 241920Z AUTO 28002KT CAVOK 11/08 Q1019=
METAR     LSGC 241950Z AUTO 25001KT CAVOK 10/08 Q1019=
METAR     LSZC 241920Z AUTO 22005KT 160V310 CAVOK 16/10 Q1017=
METAR     LSZC 241950Z AUTO 30004KT 260V340 CAVOK 15/09 Q1017=
METAR RRA LSZL 241950Z AUTO VRB02KT 9999NDV NCD 18/12 Q1016 RMK=
METAR     LSZL 241920Z NIL=
METAR     LSZS 241920Z AUTO 22003KT CAVOK 07/01 Q1021=
METAR     LSZS 241950Z AUTO 23003KT CAVOK 04/M00 Q1021=
METAR RRA LSMA 241950Z AUTO 19005KT 160V230 9999NDV NCD 14/11 Q1017
               RMK=
METAR     LSMA 241920Z NIL=
METAR RRA LSMD 241950Z AUTO 13001KT 9999NDV NCD 15/10 Q1017 RMK=
METAR     LSMD 241920Z NIL=
METAR RRA LSME 241950Z AUTO 00000KT 9999NDV NCD 15/09 Q1017 RMK=
METAR     LSME 241920Z NIL=
METAR     LSMM 241920Z NIL=
METAR     LSMM 241950Z 11006KT CAVOK 12/07 Q1017 RMK BLU=
METAR     LSMP 241920Z NIL=
METAR     LSMP 241950Z VRB02KT CAVOK 17/10 Q1017 RMK BLU=
METAR     LSMS 241920Z AUTO VRB01KT CAVOK 19/05 Q1017=
METAR     LSMS 241950Z AUTO VRB02KT CAVOK 18/05 Q1017=
Aktualisiert am Dienstag, 24. April 2018, 22:10 Uhr

TAF Schweiz

TAF     LSZH 241725Z 2418/2524 VRB03KT CAVOK TX24/2514Z TN07/2504Z
             TEMPO 2510/2518 29012G25KT BECMG 2517/2519 9999
             BKN050=
TAF     LSGG 241725Z 2418/2524 VRB03KT CAVOK TX26/2515Z TN07/2504Z
             BECMG 2508/2510 23010KT 9999 SCT050 BECMG 2519/2521
             VRB03KT PROB30 TEMPO 2520/2524 33007KT SHRA=
TAF     LFSB 241700Z 2418/2518 28006KT CAVOK BECMG 2421/2423
             13004KT BECMG 2507/2509 26012KT PROB40 TEMPO
             2510/2516 30015G28KT -SHRA FEW040TCU=
TAF     LSGS 241425Z 2415/2424 23004KT 9999 FEW070=
TAF     LSZA 241425Z 2415/2424 20010KT 9999 FEW070 BECMG 2416/2418
             VRB03KT CAVOK=
TAF     LSZB 241425Z 2415/2424 21005KT 9999 FEW040 BECMG 2417/2419
             CAVOK=
TAF     LSZG 241425Z 2415/2424 25008KT CAVOK PROB40 TEMPO 2415/2424
             9999 FEW060=
TAF     LSZL 241725Z 2418/2503 VRB03KT CAVOK TEMPO 2418/2503 9999
             FEW080=
TAF     LSZR 241425Z 2415/2424 VRB03KT 9999 FEW050 BECMG 2416/2418
             CAVOK=
TAF     LSGC 241425Z 2415/2424 VRB03KT 9999 FEW050 BECMG 2417/2420
             CAVOK=
TAF     LSZC 241425Z 2415/2424 10006KT CAVOK TEMPO 2415/2418 9999
             FEW040=
TAF     LSZS 241425Z 2415/2424 22008KT CAVOK TX15/2415Z PROB30
             TEMPO 2415/2418 9999 FEW060=
TAF     LSMA 241625Z 2417/2523 VRB03KT CAVOK BECMG 2503/2506 9999
             SCT070 PROB30 TEMPO 2510/2518 06015G25KT PROB30
             2517/2523 4500 SHRA SCT050TCU=
TAF     LSMD 241625Z 2417/2523 VRB03KT 9999 FEW060 BECMG 2417/2420
             CAVOK BECMG 2503/2506 9999 SCT060 TEMPO 2510/2518
             27014G28KT PROB30 TEMPO 2518/2523 -SHRA FEW050TCU=
TAF     LSME 241625Z 2417/2523 VRB03KT CAVOK BECMG 2503/2506 9999
             SCT060 TEMPO 2510/2518 29015G30KT PROB30 TEMPO
             2518/2523 SHRA FEW050TCU=
TAF     LSMM 241625Z 2417/2523 VRB03KT CAVOK TEMPO 2506/2516 9999
             SCT060 PROB40 TEMPO 2510/2518 28012G25KT PROB30
             2517/2523 SHRA SCT040TCU=
TAF     LSMP 241625Z 2417/2523 VRB03KT CAVOK BECMG 2508/2510
             25010KT 9999 SCT050 BECMG 2518/2520 VRB03KT=
Aktualisiert am Dienstag, 24. April 2018, 21:03 Uhr